createdAt,value
2022-10-15T00:01:41.881Z,54.70
2022-10-15T00:04:08.860Z,55.15
2022-10-15T00:06:36.014Z,56.22
2022-10-15T00:09:03.032Z,56.80
2022-10-15T00:11:31.614Z,57.28
2022-10-15T00:14:00.194Z,55.50
2022-10-15T00:16:28.881Z,56.72
2022-10-15T00:18:57.377Z,57.80
2022-10-15T00:21:24.536Z,60.42
2022-10-15T00:23:51.447Z,61.05
2022-10-15T00:26:23.245Z,59.20
2022-10-15T00:28:52.598Z,60.35
2022-10-15T00:31:24.588Z,61.45
2022-10-15T00:33:52.988Z,62.50
2022-10-15T00:36:23.545Z,64.13
2022-10-15T00:38:51.309Z,63.33
2022-10-15T00:41:25.761Z,64.85
2022-10-15T00:43:58.775Z,69.65
2022-10-15T00:46:39.255Z,67.32
2022-10-15T00:49:33.700Z,63.30
2022-10-15T00:52:16.170Z,67.60
2022-10-15T00:54:52.410Z,69.63
2022-10-15T00:57:19.811Z,65.22
2022-10-15T00:59:54.298Z,72.57
2022-10-15T01:02:21.882Z,72.55
2022-10-15T01:04:50.808Z,70.43
2022-10-15T01:09:49.625Z,71.53
2022-10-15T01:12:55.965Z,75.10
2022-10-15T01:15:31.878Z,71.47
2022-10-15T01:18:20.684Z,69.82
2022-10-15T01:21:04.756Z,67.75
2022-10-15T01:23:52.364Z,74.95
2022-10-15T01:26:34.642Z,71.15
2022-10-15T01:29:13.560Z,76.22
2022-10-15T01:32:07.888Z,72.75
2022-10-15T01:34:49.255Z,67.90
2022-10-15T01:37:27.225Z,71.10
2022-10-15T01:40:04.237Z,70.20
2022-10-15T01:42:44.071Z,72.88
2022-10-15T01:45:17.921Z,71.07
2022-10-15T01:47:58.975Z,69.45
2022-10-15T01:50:30.727Z,67.38
2022-10-15T01:53:00.070Z,73.57
2022-10-15T01:55:27.528Z,71.40
2022-10-15T01:57:58.576Z,70.23
2022-10-15T02:00:25.711Z,71.97
2022-10-15T02:02:52.474Z,74.77
2022-10-15T02:05:29.896Z,71.33
2022-10-15T02:08:19.059Z,72.67
2022-10-15T02:10:52.201Z,72.27
2022-10-15T02:13:24.589Z,72.40
2022-10-15T02:16:11.375Z,67.20
2022-10-15T02:19:02.257Z,70.10
2022-10-15T02:21:47.330Z,69.05
2022-10-15T02:24:20.339Z,70.47
2022-10-15T02:26:49.933Z,72.57
2022-10-15T02:29:21.678Z,71.57
2022-10-15T02:31:50.851Z,67.78
2022-10-15T02:34:20.986Z,73.40
2022-10-15T02:36:49.016Z,71.65
2022-10-15T02:39:21.138Z,66.10
2022-10-15T02:41:49.422Z,68.75
2022-10-15T02:44:16.683Z,74.20
2022-10-15T02:46:43.692Z,68.63
2022-10-15T02:49:12.093Z,70.03
2022-10-15T02:51:38.995Z,75.90
2022-10-15T02:54:07.159Z,69.32
2022-10-15T02:56:35.238Z,67.80
2022-10-15T02:59:03.294Z,68.10
2022-10-15T03:01:30.913Z,68.72
2022-10-15T03:03:58.402Z,67.22
2022-10-15T03:06:25.780Z,65.85
2022-10-15T03:08:53.057Z,67.20
2022-10-15T03:11:22.604Z,69.63
2022-10-15T03:13:49.440Z,68.57
2022-10-15T03:16:16.604Z,66.25
2022-10-15T03:18:45.741Z,65.15
2022-10-15T03:21:12.643Z,65.88
2022-10-15T03:23:40.115Z,67.88
2022-10-15T03:26:13.056Z,63.08
2022-10-15T03:28:40.154Z,63.30
2022-10-15T03:31:07.077Z,65.63
2022-10-15T03:33:35.012Z,67.15
2022-10-15T03:36:03.002Z,63.42
2022-10-15T03:38:29.762Z,64.10
2022-10-15T03:40:57.801Z,63.17
2022-10-15T03:43:38.750Z,64.35
2022-10-15T03:46:09.186Z,62.30
2022-10-15T03:48:40.553Z,68.88
2022-10-15T03:51:08.913Z,60.13
2022-10-15T03:53:36.022Z,61.00
2022-10-15T03:56:07.095Z,61.67
2022-10-15T03:58:37.448Z,64.18
2022-10-15T04:01:14.629Z,63.35
2022-10-15T04:03:41.679Z,63.38
2022-10-15T04:06:09.143Z,62.83
2022-10-15T04:08:37.182Z,64.35
2022-10-15T04:11:18.262Z,61.75
2022-10-15T04:13:50.134Z,60.20
2022-10-15T04:16:18.214Z,66.50
2022-10-15T04:18:45.158Z,61.72
2022-10-15T04:21:12.104Z,62.95
2022-10-15T04:23:41.485Z,64.82
2022-10-15T04:26:23.876Z,63.85
2022-10-15T04:28:51.016Z,65.40
2022-10-15T04:31:20.171Z,62.70
2022-10-15T04:33:50.797Z,63.45
2022-10-15T04:38:53.966Z,60.75
2022-10-15T04:41:27.250Z,64.13
2022-10-15T04:44:07.085Z,62.25
2022-10-15T04:46:34.115Z,65.57
2022-10-15T04:49:17.887Z,65.65
2022-10-15T04:51:45.547Z,65.95
2022-10-15T04:54:16.711Z,66.70
2022-10-15T04:57:16.253Z,63.40
2022-10-15T04:59:44.495Z,63.47
2022-10-15T05:02:30.142Z,64.78
2022-10-15T05:05:09.823Z,63.25
2022-10-15T05:07:46.185Z,66.82
2022-10-15T05:10:13.073Z,69.20
2022-10-15T05:12:39.874Z,65.50
2022-10-15T05:15:07.889Z,68.03
2022-10-15T05:17:35.368Z,67.47
2022-10-15T05:20:02.289Z,64.10
2022-10-15T05:22:30.395Z,64.90
2022-10-15T05:24:59.577Z,71.13
2022-10-15T05:27:31.758Z,66.85
2022-10-15T05:29:59.717Z,70.07
2022-10-15T05:32:35.353Z,66.03
2022-10-15T05:35:02.918Z,72.47
2022-10-15T05:37:46.799Z,70.35
2022-10-15T05:40:18.192Z,66.68
2022-10-15T05:43:01.131Z,64.68
2022-10-15T05:45:27.907Z,69.20
2022-10-15T05:47:57.193Z,69.05
2022-10-15T05:50:24.057Z,67.85
2022-10-15T05:52:54.912Z,64.65
2022-10-15T05:55:28.413Z,71.88
2022-10-15T05:57:55.774Z,67.30
2022-10-15T06:00:22.605Z,64.40
2022-10-15T06:05:24.994Z,70.45
2022-10-15T06:07:51.924Z,63.60
2022-10-15T06:10:18.971Z,63.40
2022-10-15T06:12:50.680Z,69.93
2022-10-15T06:15:18.937Z,66.30
2022-10-15T06:17:45.763Z,65.90
2022-10-15T06:20:13.032Z,66.40
2022-10-15T06:22:40.065Z,70.30
2022-10-15T06:25:07.689Z,69.28
2022-10-15T06:27:34.467Z,74.38
2022-10-15T06:30:01.240Z,70.65
2022-10-15T06:32:28.227Z,72.43
2022-10-15T06:34:55.152Z,76.38
2022-10-15T06:37:22.363Z,76.25
2022-10-15T06:39:51.347Z,76.00
2022-10-15T06:42:18.207Z,71.60
2022-10-15T06:44:47.717Z,75.55
2022-10-15T06:47:17.055Z,74.80
2022-10-15T06:49:47.475Z,76.63
2022-10-15T06:52:14.268Z,78.30
2022-10-15T06:54:41.063Z,75.50
2022-10-15T06:57:08.001Z,73.88
2022-10-15T06:59:38.506Z,80.85
2022-10-15T07:02:09.858Z,81.38
2022-10-15T07:04:36.902Z,77.07
2022-10-15T07:07:03.726Z,82.57
2022-10-15T07:09:31.161Z,83.72
2022-10-15T07:11:58.320Z,74.88
2022-10-15T07:14:25.185Z,86.90
2022-10-15T07:16:51.998Z,84.68
2022-10-15T07:19:20.388Z,82.22
2022-10-15T07:21:48.161Z,86.32
2022-10-15T07:24:15.046Z,83.97
2022-10-15T07:26:41.938Z,80.97
2022-10-15T07:29:08.976Z,78.53
2022-10-15T07:31:35.927Z,84.20
2022-10-15T07:34:02.782Z,81.57
2022-10-15T07:36:29.551Z,81.97
2022-10-15T07:38:56.323Z,85.43
2022-10-15T07:41:23.348Z,84.05
2022-10-15T07:43:53.718Z,87.28
2022-10-15T07:46:20.527Z,84.63
2022-10-15T07:48:54.062Z,79.78
2022-10-15T07:51:20.979Z,81.40
2022-10-15T07:53:48.050Z,83.38
2022-10-15T07:56:16.441Z,79.95
2022-10-15T07:58:51.268Z,85.30
2022-10-15T08:01:20.043Z,87.70
2022-10-15T08:03:47.571Z,83.45
2022-10-15T08:06:14.967Z,85.90
2022-10-15T08:08:41.907Z,82.13
2022-10-15T08:11:15.010Z,81.57
2022-10-15T08:13:42.566Z,84.07
2022-10-15T08:16:11.094Z,81.28
2022-10-15T08:18:38.780Z,76.97
2022-10-15T08:21:07.876Z,78.05
2022-10-15T08:23:35.470Z,80.55
2022-10-15T08:26:02.507Z,81.93
2022-10-15T08:28:30.107Z,78.15
2022-10-15T08:31:04.602Z,74.68
2022-10-15T08:33:34.462Z,75.47
2022-10-15T08:36:01.425Z,76.38
2022-10-15T08:38:30.993Z,76.88
2022-10-15T08:41:00.416Z,79.50
2022-10-15T08:43:36.447Z,74.78
2022-10-15T08:46:10.267Z,72.70
2022-10-15T08:48:42.872Z,73.35
2022-10-15T08:51:16.871Z,66.95
2022-10-15T08:53:48.543Z,70.65
2022-10-15T08:56:37.709Z,70.22
2022-10-15T08:59:26.173Z,68.55
2022-10-15T09:01:58.969Z,67.38
2022-10-15T09:04:51.988Z,69.63
2022-10-15T09:07:33.894Z,75.18
2022-10-15T09:10:19.374Z,65.95
2022-10-15T09:12:59.995Z,64.18
2022-10-15T09:15:30.855Z,70.15
2022-10-15T09:17:57.621Z,65.25
2022-10-15T09:20:33.412Z,61.65
2022-10-15T09:23:00.366Z,62.70
2022-10-15T09:25:35.004Z,59.88
2022-10-15T09:28:10.672Z,66.80
2022-10-15T09:30:55.290Z,55.20
2022-10-15T09:33:40.912Z,55.25
2022-10-15T09:36:35.333Z,57.55
2022-10-15T09:39:46.251Z,56.80
2022-10-15T09:42:25.357Z,52.75
2022-10-15T09:44:54.743Z,58.30
2022-10-15T09:47:34.042Z,55.95
2022-10-15T09:50:06.877Z,50.85
2022-10-15T09:53:04.772Z,51.55
2022-10-15T09:55:53.432Z,52.72
2022-10-15T09:58:37.701Z,48.40
2022-10-15T10:01:07.848Z,49.60
2022-10-15T10:03:36.799Z,47.80
2022-10-15T10:06:07.805Z,48.63
2022-10-15T10:11:23.060Z,45.83
2022-10-15T10:13:51.841Z,44.83
2022-10-15T10:16:21.233Z,44.40
2022-10-15T10:19:10.732Z,44.00
2022-10-15T10:21:42.013Z,40.97
2022-10-15T10:24:30.346Z,43.92
2022-10-15T10:26:59.008Z,43.03
2022-10-15T10:29:35.255Z,41.25
2022-10-15T10:32:20.862Z,40.30
2022-10-15T10:34:52.485Z,42.72
2022-10-15T10:37:20.199Z,42.60
2022-10-15T10:39:53.343Z,43.75
2022-10-15T10:42:20.131Z,43.17
2022-10-15T10:44:47.097Z,43.67
2022-10-15T10:47:17.224Z,43.33
2022-10-15T10:49:48.732Z,44.58
2022-10-15T10:52:33.093Z,45.70
2022-10-15T10:55:03.587Z,43.03
2022-10-15T10:57:40.494Z,40.10
2022-10-15T11:00:12.324Z,42.85
2022-10-15T11:02:43.807Z,40.33
2022-10-15T11:05:12.148Z,39.65
2022-10-15T11:07:57.970Z,38.10
2022-10-15T11:10:36.729Z,40.03
2022-10-15T11:13:35.832Z,38.15
2022-10-15T11:16:11.854Z,33.17
2022-10-15T11:18:44.789Z,34.92
2022-10-15T11:21:35.321Z,31.83
2022-10-15T11:24:11.087Z,31.08
2022-10-15T11:27:16.044Z,29.92
2022-10-15T11:29:58.024Z,30.50
2022-10-15T11:33:01.850Z,28.77
2022-10-15T11:35:53.341Z,29.08
2022-10-15T11:38:42.034Z,27.70
2022-10-15T11:41:30.350Z,29.65
2022-10-15T11:44:09.305Z,28.20
2022-10-15T11:47:03.956Z,28.30
2022-10-15T11:49:52.513Z,28.77
2022-10-15T11:52:43.129Z,28.02
2022-10-15T11:55:21.287Z,28.02
2022-10-15T11:57:54.310Z,28.67
2022-10-15T12:00:38.922Z,29.33
2022-10-15T12:03:14.446Z,27.55
2022-10-15T12:05:54.690Z,26.77
2022-10-15T12:08:24.277Z,27.30
2022-10-15T12:11:06.160Z,26.70
2022-10-15T12:13:50.398Z,27.08
2022-10-15T12:16:36.521Z,25.40
2022-10-15T12:19:19.992Z,24.58
2022-10-15T12:21:55.843Z,25.85
2022-10-15T12:24:44.366Z,25.70
2022-10-15T12:27:24.056Z,24.95
2022-10-15T12:30:11.799Z,23.50
2022-10-15T12:32:46.074Z,23.80
2022-10-15T12:35:16.036Z,24.20
2022-10-15T12:37:48.288Z,23.95
2022-10-15T12:40:21.110Z,22.42
2022-10-15T12:42:55.728Z,22.95
2022-10-15T12:45:40.518Z,22.50
2022-10-15T12:48:19.583Z,23.15
2022-10-15T12:50:49.304Z,24.38
2022-10-15T12:53:34.533Z,23.17
2022-10-15T12:56:10.722Z,23.75
2022-10-15T12:58:47.289Z,22.73
2022-10-15T13:01:14.065Z,23.55
2022-10-15T13:03:53.774Z,22.67
2022-10-15T13:06:20.580Z,22.05
2022-10-15T13:09:12.094Z,22.88
2022-10-15T13:11:54.048Z,23.35
2022-10-15T13:14:46.775Z,22.63
2022-10-15T13:17:22.031Z,22.55
2022-10-15T13:20:04.569Z,23.63
2022-10-15T13:22:34.854Z,23.98
2022-10-15T13:25:02.589Z,24.73
2022-10-15T13:27:30.381Z,24.58
2022-10-15T13:30:17.357Z,25.67
2022-10-15T13:32:50.481Z,26.77
2022-10-15T13:35:23.949Z,27.08
2022-10-15T13:37:50.723Z,26.92
2022-10-15T13:40:22.490Z,28.55
2022-10-15T13:43:06.786Z,29.15
2022-10-15T13:45:34.519Z,28.08
2022-10-15T13:48:01.309Z,30.92
2022-10-15T13:50:36.423Z,31.70
2022-10-15T13:53:09.367Z,30.83
2022-10-15T13:55:40.055Z,31.08
2022-10-15T13:58:22.294Z,30.15
2022-10-15T14:00:55.638Z,28.17
2022-10-15T14:03:28.592Z,30.88
2022-10-15T14:05:56.782Z,30.40
2022-10-15T14:08:23.584Z,30.90
2022-10-15T14:10:52.901Z,30.35
2022-10-15T14:13:19.974Z,28.67
2022-10-15T14:16:12.983Z,29.30
2022-10-15T14:18:48.166Z,30.33
2022-10-15T14:21:19.860Z,30.65
2022-10-15T14:23:48.572Z,29.15
2022-10-15T14:26:16.921Z,30.35
2022-10-15T14:28:50.951Z,30.52
2022-10-15T14:31:32.884Z,29.95
2022-10-15T14:33:59.605Z,32.20
2022-10-15T14:36:46.640Z,31.15
2022-10-15T14:39:42.833Z,31.83
2022-10-15T14:42:27.425Z,31.70
2022-10-15T14:44:55.954Z,31.58
2022-10-15T14:47:25.556Z,30.85
2022-10-15T14:50:00.019Z,32.50
2022-10-15T14:52:30.448Z,33.47
2022-10-15T14:55:20.599Z,33.25
2022-10-15T14:57:49.844Z,31.58
2022-10-15T15:00:38.456Z,33.15
2022-10-15T15:03:06.586Z,31.92
2022-10-15T15:05:53.837Z,32.33
2022-10-15T15:08:21.603Z,31.13
2022-10-15T15:10:49.996Z,31.45
2022-10-15T15:13:22.854Z,29.80
2022-10-15T15:15:50.231Z,30.45
2022-10-15T15:18:17.159Z,28.10
2022-10-15T15:20:46.473Z,28.00
2022-10-15T15:23:20.745Z,28.63
2022-10-15T15:25:51.596Z,30.02
2022-10-15T15:28:20.983Z,28.85
2022-10-15T15:30:56.113Z,29.35
2022-10-15T15:33:23.449Z,31.92
2022-10-15T15:36:05.240Z,30.35
2022-10-15T15:38:33.610Z,28.02
2022-10-15T15:41:03.478Z,28.05
2022-10-15T15:43:30.869Z,28.42
2022-10-15T15:45:57.697Z,28.65
2022-10-15T15:48:24.604Z,27.65
2022-10-15T15:50:52.265Z,29.50
2022-10-15T15:53:19.335Z,29.15
2022-10-15T15:55:46.274Z,28.02
2022-10-15T15:58:14.066Z,27.25
2022-10-15T16:00:40.839Z,28.60
2022-10-15T16:03:08.830Z,29.10
2022-10-15T16:05:35.721Z,30.27
2022-10-15T16:08:02.586Z,29.02
2022-10-15T16:10:29.393Z,28.42
2022-10-15T16:12:56.393Z,28.42
2022-10-15T16:15:23.248Z,26.95
2022-10-15T16:17:50.016Z,27.83
2022-10-15T16:20:16.968Z,28.00
2022-10-15T16:22:43.800Z,29.13
2022-10-15T16:25:10.874Z,27.60
2022-10-15T16:27:37.669Z,27.63
2022-10-15T16:30:05.070Z,28.08
2022-10-15T16:32:31.859Z,27.67
2022-10-15T16:34:58.705Z,27.20
2022-10-15T16:37:26.714Z,28.58
2022-10-15T16:39:53.724Z,27.88
2022-10-15T16:42:20.560Z,26.83
2022-10-15T16:44:47.353Z,26.02
2022-10-15T16:47:14.177Z,27.67
2022-10-15T16:49:42.475Z,26.45
2022-10-15T16:52:09.401Z,26.10
2022-10-15T16:54:36.517Z,24.27
2022-10-15T16:57:03.306Z,24.60
2022-10-15T16:59:30.341Z,21.95
2022-10-15T17:01:57.237Z,23.90
2022-10-15T17:04:24.102Z,23.00
2022-10-15T17:06:51.036Z,22.50
2022-10-15T17:09:17.854Z,24.38
2022-10-15T17:11:47.000Z,25.63
2022-10-15T17:14:16.312Z,25.23
2022-10-15T17:16:45.969Z,26.25
2022-10-15T17:19:14.629Z,27.77
2022-10-15T17:21:42.603Z,27.95
2022-10-15T17:24:12.465Z,27.23
2022-10-15T17:26:40.645Z,26.85
2022-10-15T17:29:13.886Z,28.17
2022-10-15T17:31:40.667Z,27.48
2022-10-15T17:34:10.873Z,28.23
2022-10-15T17:36:43.162Z,27.95
2022-10-15T17:39:14.621Z,26.10
2022-10-15T17:41:41.665Z,24.52
2022-10-15T17:44:09.211Z,26.67
2022-10-15T17:46:36.046Z,27.67
2022-10-15T17:49:03.628Z,28.70
2022-10-15T17:51:32.465Z,30.05
2022-10-15T17:54:02.095Z,30.63
2022-10-15T17:56:32.004Z,33.10
2022-10-15T17:59:00.575Z,31.77
2022-10-15T18:01:56.710Z,30.02
2022-10-15T18:04:19.635Z,28.63
2022-10-15T18:06:46.405Z,27.83
2022-10-15T18:09:24.559Z,29.50
2022-10-15T18:11:51.423Z,28.83
2022-10-15T18:14:18.490Z,26.52
2022-10-15T18:16:45.910Z,25.35
2022-10-15T18:19:12.996Z,26.15
2022-10-15T18:21:39.891Z,23.88
2022-10-15T18:24:06.743Z,21.02
2022-10-15T18:26:33.605Z,20.75
2022-10-15T18:29:00.549Z,24.30
2022-10-15T18:31:27.695Z,23.70
2022-10-15T18:33:56.079Z,23.38
2022-10-15T18:36:25.985Z,24.65
2022-10-15T18:38:55.331Z,22.75
2022-10-15T18:41:28.168Z,22.58
2022-10-15T18:43:58.920Z,22.48
2022-10-15T18:46:31.119Z,21.85
2022-10-15T18:48:58.531Z,21.77
2022-10-15T18:51:26.948Z,22.45
2022-10-15T18:53:54.226Z,20.58
2022-10-15T18:56:21.906Z,22.35
2022-10-15T18:58:48.891Z,22.55
2022-10-15T19:01:36.453Z,21.45
2022-10-15T19:04:06.235Z,21.95
2022-10-15T19:06:38.990Z,17.65
2022-10-15T19:09:08.915Z,18.02
2022-10-15T19:11:36.829Z,20.98
2022-10-15T19:14:04.995Z,19.75
2022-10-15T19:16:31.820Z,20.02
2022-10-15T19:19:12.609Z,18.65
2022-10-15T19:21:39.369Z,16.20
2022-10-15T19:24:06.621Z,16.50
2022-10-15T19:26:34.329Z,18.92
2022-10-15T19:29:02.119Z,18.98
2022-10-15T19:31:35.247Z,17.55
2022-10-15T19:34:02.712Z,17.77
2022-10-15T19:36:34.092Z,17.63
2022-10-15T19:39:04.158Z,19.20
2022-10-15T19:41:30.972Z,20.08
2022-10-15T19:43:57.973Z,19.27
2022-10-15T19:46:24.949Z,16.60
2022-10-15T19:48:51.727Z,17.70
2022-10-15T19:51:21.460Z,19.73
2022-10-15T19:53:56.349Z,21.27
2022-10-15T19:56:23.458Z,19.67
2022-10-15T19:58:56.028Z,19.77
2022-10-15T20:01:23.020Z,22.55
2022-10-15T20:03:49.912Z,21.60
2022-10-15T20:06:17.396Z,21.55
2022-10-15T20:08:44.226Z,20.33
2022-10-15T20:11:11.103Z,17.67
2022-10-15T20:13:38.079Z,18.17
2022-10-15T20:16:08.508Z,19.13
2022-10-15T20:18:36.177Z,20.65
2022-10-15T20:21:10.714Z,17.77
2022-10-15T20:23:38.506Z,18.85
2022-10-15T20:26:07.371Z,18.38
2022-10-15T20:28:39.055Z,17.65
2022-10-15T20:31:17.421Z,19.92
2022-10-15T20:33:44.922Z,20.23
2022-10-15T20:36:17.106Z,20.92
2022-10-15T20:38:45.862Z,18.58
2022-10-15T20:41:16.066Z,19.10
2022-10-15T20:43:44.162Z,18.38
2022-10-15T20:46:22.112Z,20.30
2022-10-15T20:48:49.626Z,17.80
2022-10-15T20:51:18.957Z,16.80
2022-10-15T20:53:46.296Z,18.25
2022-10-15T20:56:14.069Z,17.88
2022-10-15T20:58:41.005Z,19.90
2022-10-15T21:01:07.992Z,19.83
2022-10-15T21:03:34.981Z,17.38
2022-10-15T21:06:01.999Z,17.00
2022-10-15T21:08:28.859Z,18.35
2022-10-15T21:11:04.009Z,19.02
2022-10-15T21:13:31.179Z,19.05
2022-10-15T21:16:02.748Z,17.27
2022-10-15T21:18:29.963Z,19.30
2022-10-15T21:21:08.776Z,17.85
2022-10-15T21:23:36.789Z,17.50
2022-10-15T21:26:11.262Z,19.15
2022-10-15T21:28:38.187Z,19.15
2022-10-15T21:31:10.721Z,18.75
2022-10-15T21:33:37.757Z,18.40
2022-10-15T21:36:22.823Z,19.00
2022-10-15T21:38:53.476Z,19.35
2022-10-15T21:41:21.361Z,17.90
2022-10-15T21:46:20.219Z,17.98
2022-10-15T21:48:47.222Z,18.83
2022-10-15T21:51:16.822Z,19.77
2022-10-15T21:53:44.370Z,18.65
2022-10-15T21:56:11.682Z,20.10
2022-10-15T21:58:40.178Z,20.88
2022-10-15T22:01:09.094Z,19.80
2022-10-15T22:03:36.000Z,18.95
2022-10-15T22:06:02.851Z,19.20
2022-10-15T22:08:30.525Z,20.45
2022-10-15T22:11:12.130Z,19.85
2022-10-15T22:13:43.427Z,18.00
2022-10-15T22:16:11.356Z,18.77
2022-10-15T22:18:39.905Z,18.17
2022-10-15T22:21:15.875Z,18.50
2022-10-15T22:23:55.169Z,18.90
2022-10-15T22:26:26.581Z,19.80
2022-10-15T22:28:55.292Z,18.40
2022-10-15T22:31:22.383Z,17.73
2022-10-15T22:33:49.517Z,17.80
2022-10-15T22:36:28.459Z,18.45
2022-10-15T22:38:58.348Z,18.17
2022-10-15T22:41:25.119Z,17.85
2022-10-15T22:43:51.893Z,18.85
2022-10-15T22:46:18.644Z,16.33
2022-10-15T22:48:45.569Z,15.77
2022-10-15T22:51:13.962Z,20.40
2022-10-15T22:53:41.069Z,20.20
2022-10-15T22:56:12.482Z,18.88
2022-10-15T22:58:39.684Z,19.60
2022-10-15T23:01:26.780Z,18.23
2022-10-15T23:03:57.174Z,19.10
2022-10-15T23:06:25.796Z,17.67
2022-10-15T23:08:52.695Z,18.35
2022-10-15T23:11:25.882Z,16.83
2022-10-15T23:13:58.192Z,16.63
2022-10-15T23:16:28.943Z,16.42
2022-10-15T23:18:58.323Z,15.02
2022-10-15T23:21:40.667Z,16.52
2022-10-15T23:24:08.379Z,15.93
2022-10-15T23:26:36.571Z,15.00
2022-10-15T23:29:04.779Z,16.58
2022-10-15T23:31:33.966Z,14.40
2022-10-15T23:34:02.000Z,14.05
2022-10-15T23:36:29.769Z,15.40
2022-10-15T23:38:59.211Z,15.73
2022-10-15T23:41:27.343Z,15.98
2022-10-15T23:43:55.375Z,17.63
2022-10-15T23:46:22.365Z,16.08
2022-10-15T23:48:49.545Z,14.77
2022-10-15T23:51:30.208Z,15.23
2022-10-15T23:53:59.048Z,14.15
2022-10-15T23:56:26.529Z,13.25
2022-10-15T23:58:56.147Z,14.00
